Time;durP1;ratioP1;P1;durP2;ratioP2;P2;SDS_P1;SDS_P2;PMS_P1;PMS_P2;Temp;Humidity;BMP_temperature;BMP_pressure;BME280_temperature;BME280_humidity;BME280_pressure;Samples;Min_cycle;Max_cycle;Signal;HPM_P1;HPM_P2
2023/12/24 00:00:13;;;;;;;1.00;0.80;;;;;;;8.95;68.59;97822.41;5053882;28;20204;-74
2023/12/24 00:02:39;;;;;;;0.80;0.60;;;;;;;8.97;68.14;97824.91;5048323;28;20282;-74
2023/12/24 00:05:06;;;;;;;0.75;0.75;;;;;;;8.97;68.57;97830.31;5054272;28;20210;-74
2023/12/24 00:07:34;;;;;;;1.20;0.95;;;;;;;8.95;68.63;97826.97;5056791;28;20203;-74
2023/12/24 00:10:01;;;;;;;1.40;0.82;;;;;;;8.91;68.90;97817.59;5056026;28;20208;-74
2023/12/24 00:12:27;;;;;;;4.80;2.95;;;;;;;8.98;68.45;97832.00;5089683;28;20287;-74
2023/12/24 00:14:54;;;;;;;1.00;0.80;;;;;;;8.96;68.19;97828.66;5073434;28;20919;-73
2023/12/24 00:17:21;;;;;;;1.52;0.80;;;;;;;8.98;67.92;97832.00;5071548;28;20304;-74
2023/12/24 00:19:47;;;;;;;0.80;0.70;;;;;;;9.02;67.72;97819.78;5073635;28;20275;-74
2023/12/24 00:22:14;;;;;;;1.35;0.80;;;;;;;9.01;67.95;97818.09;5070733;28;20200;-74
2023/12/24 00:24:43;;;;;;;0.80;0.70;;;;;;;8.97;68.18;97828.47;5072237;28;20546;-74
2023/12/24 00:27:10;;;;;;;0.90;0.70;;;;;;;8.98;68.36;97815.78;5073405;28;20265;-74
2023/12/24 00:29:37;;;;;;;0.75;0.70;;;;;;;9.05;68.10;97817.50;5091213;28;20667;-74
2023/12/24 00:32:04;;;;;;;0.70;0.70;;;;;;;8.96;68.19;97804.34;5072840;28;20204;-73
2023/12/24 00:34:31;;;;;;;1.08;0.85;;;;;;;9.06;67.83;97819.19;5071521;28;20218;-74
2023/12/24 00:36:57;;;;;;;1.13;0.70;;;;;;;8.97;68.18;97800.63;5089846;28;20268;-74
2023/12/24 00:39:24;;;;;;;1.08;0.90;;;;;;;9.01;68.16;97818.09;5071260;28;20557;-74
2023/12/24 00:41:52;;;;;;;0.70;0.70;;;;;;;8.97;68.30;97811.44;5072957;28;20212;-74
2023/12/24 00:44:18;;;;;;;0.77;0.70;;;;;;;9.03;67.82;97797.16;5072844;28;20200;-74
2023/12/24 00:46:45;;;;;;;0.73;0.52;;;;;;;8.96;68.46;97801.66;5092755;28;20192;-73
2023/12/24 00:49:11;;;;;;;0.60;0.60;;;;;;;8.95;68.62;97797.28;5085761;28;20207;-74
2023/12/24 00:51:42;;;;;;;0.73;0.70;;;;;;;8.98;68.32;97797.75;5085876;28;20208;-73
2023/12/24 00:54:08;;;;;;;1.50;0.73;;;;;;;8.92;68.52;97792.28;5069010;28;20668;-73
2023/12/24 00:56:35;;;;;;;0.90;0.70;;;;;;;8.93;68.02;97792.09;5071745;28;20198;-74
2023/12/24 00:59:03;;;;;;;0.80;0.70;;;;;;;8.93;67.87;97791.25;5055355;28;20726;-74
2023/12/24 01:01:29;;;;;;;1.63;0.93;;;;;;;8.99;67.59;97801.28;5072974;28;20676;-74
2023/12/24 01:03:56;;;;;;;1.75;0.80;;;;;;;9.01;67.62;97804.59;5089347;28;20210;-75
2023/12/24 01:06:23;;;;;;;0.93;0.77;;;;;;;8.99;67.66;97807.50;5054608;28;20188;-74
2023/12/24 01:08:49;;;;;;;0.90;0.80;;;;;;;8.93;67.70;97821.78;5088773;28;20225;-74
2023/12/24 01:11:16;;;;;;;0.98;0.80;;;;;;;8.96;67.34;97805.19;5072555;28;20334;-74
2023/12/24 01:13:42;;;;;;;0.90;0.70;;;;;;;8.96;67.34;97801.66;5072286;28;20213;-74
2023/12/24 01:16:11;;;;;;;1.63;0.80;;;;;;;8.97;67.31;97808.72;5104981;28;20214;-74
2023/12/24 01:18:38;;;;;;;0.95;0.80;;;;;;;8.94;66.82;97815.34;5086973;28;20227;-73
2023/12/24 01:21:06;;;;;;;1.00;0.70;;;;;;;9.00;67.16;97797.53;5072378;28;20204;-73
2023/12/24 01:23:32;;;;;;;1.13;0.82;;;;;;;9.07;66.92;97830.81;5072686;28;20206;-74
2023/12/24 01:25:59;;;;;;;1.20;0.98;;;;;;;8.95;67.15;97821.59;5088801;28;20203;-74
2023/12/24 01:28:27;;;;;;;1.30;1.00;;;;;;;8.96;67.27;97818.69;5071212;28;20207;-74
2023/12/24 01:30:54;;;;;;;1.45;0.98;;;;;;;8.94;66.51;97825.31;5073013;28;20618;-73
2023/12/24 01:33:22;;;;;;;1.15;0.93;;;;;;;8.97;66.07;97814.97;5106338;28;20200;-74
2023/12/24 01:35:49;;;;;;;1.02;0.80;;;;;;;9.02;66.16;97817.06;5069460;28;20200;-74
2023/12/24 01:38:16;;;;;;;0.73;0.73;;;;;;;9.06;65.88;97802.16;5089426;28;20227;-74
2023/12/24 01:40:45;;;;;;;0.70;0.70;;;;;;;9.00;65.84;97786.75;5089590;28;20196;-74
2023/12/24 01:43:12;;;;;;;0.70;0.70;;;;;;;8.98;65.84;97803.13;5089676;28;20196;-75
2023/12/24 01:45:39;;;;;;;1.05;0.88;;;;;;;8.95;66.30;97783.81;5071358;28;20226;-74
2023/12/24 01:48:06;;;;;;;1.50;0.80;;;;;;;8.90;66.62;97786.25;5089023;28;20534;-74
2023/12/24 01:50:35;;;;;;;1.15;0.90;;;;;;;8.67;66.82;97763.06;5090293;28;20202;-74
2023/12/24 01:53:02;;;;;;;0.77;0.77;;;;;;;8.83;66.39;97782.66;5057495;28;20249;-74
2023/12/24 01:55:29;;;;;;;1.30;0.80;;;;;;;8.85;66.44;97783.31;5087917;28;20278;-74
2023/12/24 01:57:56;;;;;;;1.08;0.80;;;;;;;8.72;66.89;97787.59;5071507;28;20764;-74
2023/12/24 02:00:22;;;;;;;1.30;0.93;;;;;;;8.79;66.77;97811.91;5089750;28;20253;-73
2023/12/24 02:02:50;;;;;;;1.02;0.60;;;;;;;8.81;66.49;97792.81;5071445;28;20428;-74
2023/12/24 02:05:17;;;;;;;2.47;0.93;;;;;;;8.75;67.06;97795.31;5069988;28;20278;-74
2023/12/24 02:07:45;;;;;;;1.05;0.80;;;;;;;8.68;67.29;97783.63;5070536;28;20235;-74
2023/12/24 02:10:12;;;;;;;1.25;0.65;;;;;;;8.71;66.72;97793.19;5071171;28;20210;-74
2023/12/24 02:12:39;;;;;;;1.00;0.93;;;;;;;8.71;66.98;97767.06;5076434;28;20200;-74
2023/12/24 02:15:07;;;;;;;1.00;0.80;;;;;;;8.60;66.84;97802.66;5053529;28;20231;-73
2023/12/24 02:17:35;;;;;;;0.90;0.80;;;;;;;8.74;66.09;97796.34;5054287;28;20203;-74
2023/12/24 02:20:01;;;;;;;0.70;0.70;;;;;;;8.65;66.79;97794.81;5070112;28;20253;-73
2023/12/24 02:22:29;;;;;;;0.90;0.70;;;;;;;8.71;66.98;97826.41;5070807;28;20199;-74
2023/12/24 02:24:56;;;;;;;1.30;0.82;;;;;;;8.69;66.71;97803.34;5071121;28;20203;-74
2023/12/24 02:27:26;;;;;;;0.80;0.80;;;;;;;8.72;66.73;97800.25;5074460;28;20208;-74
2023/12/24 02:29:57;;;;;;;1.17;0.60;;;;;;;8.66;67.30;97812.66;5059459;28;20206;-74
2023/12/24 02:32:25;;;;;;;0.60;0.60;;;;;;;8.67;67.25;97818.91;5049245;28;20294;-74
2023/12/24 02:34:52;;;;;;;1.10;0.80;;;;;;;8.77;66.88;97808.59;5090506;28;20199;-74
2023/12/24 02:37:19;;;;;;;0.95;0.60;;;;;;;8.74;66.97;97815.22;5069217;28;20199;-74
2023/12/24 02:39:47;;;;;;;0.70;0.70;;;;;;;8.82;66.76;97810.69;5075572;28;20224;-74
2023/12/24 02:42:14;;;;;;;0.73;0.70;;;;;;;8.83;66.58;97842.03;5072586;28;20207;-74
2023/12/24 02:44:41;;;;;;;0.80;0.80;;;;;;;8.79;66.78;97801.13;5072292;28;20203;-74
2023/12/24 02:47:08;;;;;;;1.25;0.98;;;;;;;8.84;66.54;97814.03;5075575;28;20210;-74
2023/12/24 02:49:35;;;;;;;1.90;0.80;;;;;;;8.82;66.84;97818.78;5074983;28;20552;-73
2023/12/24 02:52:01;;;;;;;1.23;0.80;;;;;;;8.90;67.08;97824.03;5059326;28;20218;-73
2023/12/24 02:54:28;;;;;;;2.95;0.82;;;;;;;8.82;67.29;97826.88;5075491;28;20290;-74
2023/12/24 02:56:55;;;;;;;1.50;0.82;;;;;;;8.76;67.64;97804.22;5074251;28;20562;-74
2023/12/24 02:59:22;;;;;;;0.63;0.63;;;;;;;8.80;67.79;97807.34;5074307;28;20315;-74
2023/12/24 03:01:49;;;;;;;0.75;0.65;;;;;;;8.77;67.84;97803.22;5072813;28;20438;-74
2023/12/24 03:04:16;;;;;;;0.82;0.55;;;;;;;8.72;68.43;97803.78;5072346;28;20662;-74
2023/12/24 03:06:43;;;;;;;0.80;0.50;;;;;;;8.72;68.59;97817.28;5092098;28;20687;-74
2023/12/24 03:09:10;;;;;;;0.60;0.60;;;;;;;8.64;68.99;97797.69;5058302;28;20200;-74
2023/12/24 03:11:37;;;;;;;0.98;0.80;;;;;;;8.62;69.25;97816.78;5074080;28;20211;-74
2023/12/24 03:14:05;;;;;;;0.60;0.60;;;;;;;8.64;69.26;97803.94;5057747;28;20210;-73
2023/12/24 03:16:31;;;;;;;0.60;0.60;;;;;;;8.66;69.49;97796.47;5092140;28;20204;-74
2023/12/24 03:18:58;;;;;;;0.95;0.60;;;;;;;8.64;69.77;97800.41;5072360;28;20233;-73
2023/12/24 03:21:24;;;;;;;0.70;0.65;;;;;;;8.54;70.29;97792.63;5107726;28;20208;-73
2023/12/24 03:23:51;;;;;;;1.25;0.98;;;;;;;8.45;70.85;97782.22;5074051;28;20283;-74
2023/12/24 03:26:21;;;;;;;0.68;0.52;;;;;;;8.45;70.54;97790.28;5073332;28;20680;-74
2023/12/24 03:28:48;;;;;;;1.02;0.60;;;;;;;8.43;70.69;97795.88;5074317;28;20192;-74
2023/12/24 03:31:17;;;;;;;0.80;0.60;;;;;;;8.46;70.60;97811.66;5055990;28;20199;-73
2023/12/24 03:33:43;;;;;;;0.85;0.63;;;;;;;8.36;71.65;97811.16;5072715;28;20204;-73
2023/12/24 03:36:10;;;;;;;0.60;0.60;;;;;;;8.42;71.24;97791.53;5074075;28;20224;-74
2023/12/24 03:38:36;;;;;;;0.85;0.60;;;;;;;8.31;71.47;97783.91;5074411;28;20235;-74
2023/12/24 03:41:04;;;;;;;0.80;0.80;;;;;;;8.35;71.48;97804.09;5073019;28;20580;-74
2023/12/24 03:43:30;;;;;;;0.60;0.50;;;;;;;8.44;71.39;97829.06;5072747;28;20791;-74
2023/12/24 03:45:57;;;;;;;0.70;0.70;;;;;;;8.30;72.12;97809.19;5071643;28;20296;-74
2023/12/24 03:48:25;;;;;;;0.85;0.75;;;;;;;8.38;71.71;97812.63;5064816;28;20192;-74
2023/12/24 03:50:51;;;;;;;1.50;0.70;;;;;;;8.33;71.78;97793.50;5069907;28;20539;-73
2023/12/24 03:53:18;;;;;;;0.90;0.70;;;;;;;8.42;71.15;97794.22;5056399;28;20206;-74
2023/12/24 03:55:44;;;;;;;1.00;0.80;;;;;;;8.45;70.79;97790.28;5073167;28;20200;-74
2023/12/24 03:58:11;;;;;;;0.80;0.80;;;;;;;8.46;70.64;97790.06;5065644;28;20356;-74
2023/12/24 04:00:39;;;;;;;1.10;0.70;;;;;;;8.49;70.56;97789.69;5073072;28;20215;-74
2023/12/24 04:03:06;;;;;;;1.02;0.75;;;;;;;8.46;70.23;97783.84;5073417;28;20264;-74
2023/12/24 04:05:34;;;;;;;0.98;0.70;;;;;;;8.48;70.64;97779.94;5091398;28;20683;-74
2023/12/24 04:08:00;;;;;;;1.33;0.80;;;;;;;8.45;70.61;97771.41;5089907;28;20214;-73
2023/12/24 04:10:27;;;;;;;0.80;0.80;;;;;;;8.56;70.21;97781.66;5072626;28;20206;-73
2023/12/24 04:12:54;;;;;;;1.25;0.95;;;;;;;8.46;70.54;97779.28;5105701;28;20200;-74
2023/12/24 04:15:20;;;;;;;0.93;0.82;;;;;;;8.51;70.11;97782.22;5070684;28;20441;-74
2023/12/24 04:17:47;;;;;;;0.95;0.80;;;;;;;8.50;70.26;97785.97;5071319;28;20211;-74
2023/12/24 04:20:14;;;;;;;0.90;0.90;;;;;;;8.50;70.36;97788.66;5072482;28;20226;-74
2023/12/24 04:22:42;;;;;;;1.70;0.77;;;;;;;8.51;70.30;97784.09;5073049;28;20294;-74
2023/12/24 04:25:08;;;;;;;0.77;0.77;;;;;;;8.50;69.88;97780.56;5071275;28;20302;-74
2023/12/24 04:27:35;;;;;;;1.00;0.80;;;;;;;8.52;70.00;97777.69;5071339;28;20231;-74
2023/12/24 04:30:01;;;;;;;0.80;0.80;;;;;;;8.58;69.68;97793.91;5073071;28;20290;-73
2023/12/24 04:32:28;;;;;;;0.70;0.70;;;;;;;8.59;69.59;97787.50;5103194;27;20282;-74
2023/12/24 04:34:55;;;;;;;1.33;0.90;;;;;;;8.53;70.10;97763.16;5072114;28;20200;-74
2023/12/24 04:37:21;;;;;;;1.10;0.80;;;;;;;8.55;69.89;97771.91;5107684;28;20295;-73
2023/12/24 04:39:50;;;;;;;1.30;0.93;;;;;;;8.67;69.38;97764.94;5072256;28;20234;-75
2023/12/24 04:42:16;;;;;;;0.80;0.80;;;;;;;8.66;69.35;97774.91;5118213;28;20283;-73
2023/12/24 04:44:43;;;;;;;1.00;0.90;;;;;;;8.66;69.27;97758.72;5085631;28;20203;-73
2023/12/24 04:47:10;;;;;;;0.80;0.80;;;;;;;8.63;69.45;97753.69;5078350;28;20261;-73
2023/12/24 04:49:37;;;;;;;1.92;0.90;;;;;;;8.62;69.42;97743.94;5089313;28;20673;-73
2023/12/24 04:52:04;;;;;;;1.02;0.93;;;;;;;8.66;69.55;97756.00;5063789;28;20208;-74
2023/12/24 04:54:31;;;;;;;1.02;0.93;;;;;;;8.57;69.67;97748.25;5072348;28;20196;-74
2023/12/24 04:56:59;;;;;;;0.60;0.60;;;;;;;8.57;69.97;97732.91;5063173;28;20290;-74
2023/12/24 04:59:25;;;;;;;1.65;0.90;;;;;;;8.55;70.00;97724.19;5072569;28;20224;-74
2023/12/24 05:01:52;;;;;;;0.80;0.80;;;;;;;8.45;70.53;97718.28;5071259;28;20286;-73
2023/12/24 05:04:19;;;;;;;0.80;0.80;;;;;;;8.44;70.78;97713.97;5054534;28;20688;-73
2023/12/24 05:06:45;;;;;;;0.70;0.70;;;;;;;8.47;70.92;97716.22;5072676;28;20608;-74
2023/12/24 05:09:12;;;;;;;0.80;0.70;;;;;;;8.43;71.05;97716.84;5089585;28;20196;-74
2023/12/24 05:11:40;;;;;;;1.10;0.70;;;;;;;8.40;71.14;97696.50;5070133;28;20661;-74
2023/12/24 05:14:08;;;;;;;0.60;0.60;;;;;;;8.36;71.36;97704.16;5072778;28;20207;-74
2023/12/24 05:16:35;;;;;;;2.00;1.02;;;;;;;8.37;71.46;97694.19;5072031;28;20211;-74
2023/12/24 05:19:01;;;;;;;1.00;0.90;;;;;;;8.31;71.55;97693.06;5071864;28;20224;-74
2023/12/24 05:21:29;;;;;;;0.82;0.80;;;;;;;8.31;71.83;97697.63;5049928;28;20669;-74
2023/12/24 05:23:55;;;;;;;1.10;1.00;;;;;;;8.24;72.15;97699.44;5071897;28;20211;-75
2023/12/24 05:26:24;;;;;;;1.77;1.23;;;;;;;8.18;72.15;97711.84;5072307;28;20214;-74
2023/12/24 05:28:50;;;;;;;0.90;0.80;;;;;;;8.29;72.26;97714.00;5072046;28;20535;-74
2023/12/24 05:31:18;;;;;;;1.00;0.70;;;;;;;8.22;72.37;97723.91;5072129;28;20584;-74
2023/12/24 05:33:45;;;;;;;0.82;0.82;;;;;;;8.25;72.26;97722.69;5077753;28;20199;-73
2023/12/24 05:36:13;;;;;;;1.17;0.70;;;;;;;8.17;72.61;97741.69;5109756;28;20223;-73
2023/12/24 05:38:40;;;;;;;0.80;0.70;;;;;;;8.29;72.37;97740.13;5077312;28;20196;-74
2023/12/24 05:41:08;;;;;;;0.63;0.60;;;;;;;8.25;72.29;97728.06;5055781;28;20326;-74
2023/12/24 05:43:35;;;;;;;0.50;0.50;;;;;;;8.21;72.95;97740.25;5072061;28;20207;-74
2023/12/24 05:46:01;;;;;;;0.75;0.60;;;;;;;8.31;72.31;97721.91;5072770;28;20230;-74
2023/12/24 05:48:29;;;;;;;0.70;0.70;;;;;;;8.21;72.20;97705.22;5070514;28;20204;-74
2023/12/24 05:50:56;;;;;;;0.80;0.70;;;;;;;8.31;72.04;97711.13;5069398;28;20219;-74
2023/12/24 05:53:22;;;;;;;0.80;0.75;;;;;;;8.24;72.04;97719.16;5071475;28;20564;-74
2023/12/24 05:55:49;;;;;;;1.02;0.55;;;;;;;8.29;72.04;97695.13;5071507;28;20210;-74
2023/12/24 05:58:20;;;;;;;0.95;0.60;;;;;;;8.25;72.53;97706.50;5071234;28;20211;-73
2023/12/24 06:00:47;;;;;;;0.80;0.60;;;;;;;8.27;72.34;97699.06;5074771;28;20232;-74
2023/12/24 06:03:13;;;;;;;0.70;0.60;;;;;;;8.16;72.44;97691.50;5058826;28;20200;-74
2023/12/24 06:05:41;;;;;;;0.60;0.50;;;;;;;8.23;72.65;97687.00;5092278;28;20199;-74
2023/12/24 06:08:08;;;;;;;0.77;0.50;;;;;;;8.13;72.69;97681.94;5074598;28;20298;-73
2023/12/24 06:10:35;;;;;;;0.50;0.50;;;;;;;8.16;72.69;97691.50;5093569;28;20689;-74
2023/12/24 06:13:03;;;;;;;0.50;0.50;;;;;;;8.20;72.57;97682.00;5091433;28;20203;-74
2023/12/24 06:15:30;;;;;;;0.70;0.50;;;;;;;8.24;72.28;97694.06;5059588;28;20202;-74
2023/12/24 06:17:56;;;;;;;1.13;0.63;;;;;;;8.30;72.32;97690.56;5107939;28;20214;-74
2023/12/24 06:20:23;;;;;;;0.82;0.60;;;;;;;8.17;72.73;97699.38;5075788;28;20223;-74
2023/12/24 06:22:52;;;;;;;0.60;0.50;;;;;;;8.26;72.80;97697.38;5107508;28;20215;-74
2023/12/24 06:25:19;;;;;;;1.00;0.50;;;;;;;8.28;72.33;97687.25;5092869;28;20204;-74
2023/12/24 06:27:45;;;;;;;0.60;0.50;;;;;;;8.22;72.89;97682.63;5073031;28;20573;-73
2023/12/24 06:30:13;;;;;;;0.90;0.45;;;;;;;8.31;72.58;97687.69;5074797;28;20358;-74
2023/12/24 06:32:41;;;;;;;0.90;0.50;;;;;;;8.35;72.56;97701.66;5091120;28;20200;-73
2023/12/24 06:35:08;;;;;;;0.65;0.50;;;;;;;8.44;72.38;97694.25;5074755;28;20204;-73
2023/12/24 06:37:35;;;;;;;0.57;0.57;;;;;;;8.50;72.12;97671.84;5074532;28;20274;-76
2023/12/24 06:40:06;;;;;;;0.50;0.50;;;;;;;8.46;72.06;97678.66;5072558;28;20226;-74
2023/12/24 06:42:32;;;;;;;0.60;0.50;;;;;;;8.52;72.15;97669.78;5072161;28;20635;-74
2023/12/24 06:45:00;;;;;;;0.60;0.60;;;;;;;8.47;72.39;97662.28;5056359;28;20199;-75
2023/12/24 06:47:27;;;;;;;0.77;0.70;;;;;;;8.46;72.21;97671.41;5072799;28;20200;-68
2023/12/24 06:49:53;;;;;;;0.80;0.57;;;;;;;8.47;72.40;97662.28;5051824;28;20203;-71
2023/12/24 06:52:20;;;;;;;0.90;0.50;;;;;;;8.49;72.30;97660.22;5090619;28;20214;-71
2023/12/24 06:54:47;;;;;;;0.60;0.50;;;;;;;8.50;72.33;97656.50;5072263;28;20208;-74
2023/12/24 06:57:15;;;;;;;0.80;0.60;;;;;;;8.53;72.22;97660.66;5069106;28;20286;-74
2023/12/24 06:59:41;;;;;;;0.77;0.70;;;;;;;8.50;72.19;97651.13;5073594;28;20219;-74
2023/12/24 07:02:08;;;;;;;0.70;0.70;;;;;;;8.56;72.44;97660.28;5090934;28;20199;-73
2023/12/24 07:04:35;;;;;;;0.60;0.60;;;;;;;8.54;72.37;97646.16;5052552;28;20211;-73
2023/12/24 07:07:01;;;;;;;0.60;0.52;;;;;;;8.55;72.55;97643.25;5075153;28;20198;-74
2023/12/24 07:09:28;;;;;;;0.70;0.60;;;;;;;8.67;72.46;97644.38;5073818;28;20646;-75
2023/12/24 07:11:55;;;;;;;0.75;0.60;;;;;;;8.66;72.71;97649.97;5071084;28;20218;-76
2023/12/24 07:14:22;;;;;;;0.80;0.63;;;;;;;8.59;72.92;97646.41;5111022;28;20204;-74
2023/12/24 07:16:49;;;;;;;0.80;0.70;;;;;;;8.59;72.44;97649.94;5074269;28;20204;-75
2023/12/24 07:19:15;;;;;;;0.85;0.60;;;;;;;8.51;72.98;97650.09;5107035;28;20200;-75
2023/12/24 07:21:42;;;;;;;1.25;0.85;;;;;;;8.51;73.58;97658.16;5092464;28;20279;-75
2023/12/24 07:24:08;;;;;;;0.60;0.50;;;;;;;8.47;74.25;97653.38;5077208;28;20279;-76
2023/12/24 07:26:35;;;;;;;0.90;0.80;;;;;;;8.42;74.76;97659.38;5060339;28;20196;-75
2023/12/24 07:29:02;;;;;;;0.70;0.70;;;;;;;8.43;74.92;97634.09;5075918;28;20224;-76
2023/12/24 07:31:32;;;;;;;0.50;0.50;;;;;;;8.37;75.72;97634.88;5078095;28;20192;-76
2023/12/24 07:33:59;;;;;;;0.77;0.75;;;;;;;8.27;75.90;97618.19;5112534;28;20255;-76
2023/12/24 07:36:26;;;;;;;0.73;0.60;;;;;;;8.33;75.78;97628.22;5079303;28;20610;-76
2023/12/24 07:38:52;;;;;;;1.08;0.70;;;;;;;8.32;75.86;97631.91;5095015;28;20287;-76
2023/12/24 07:41:19;;;;;;;1.50;0.70;;;;;;;8.24;75.38;97610.47;5095509;28;20218;-76
2023/12/24 07:43:46;;;;;;;0.82;0.52;;;;;;;8.31;75.97;97614.06;5075260;28;20637;-76
2023/12/24 07:46:12;;;;;;;0.60;0.50;;;;;;;8.37;75.56;97614.13;5075839;28;20203;-76
2023/12/24 07:48:40;;;;;;;0.82;0.70;;;;;;;8.34;76.26;97601.06;5091852;28;20559;-75
2023/12/24 07:51:07;;;;;;;0.70;0.65;;;;;;;8.30;76.61;97593.53;5073492;28;20210;-78
2023/12/24 07:53:33;;;;;;;1.00;0.70;;;;;;;8.37;76.08;97607.91;5055364;28;20203;-76
2023/12/24 07:56:00;;;;;;;0.70;0.70;;;;;;;8.47;75.53;97608.34;5070830;28;20846;-76
2023/12/24 07:58:27;;;;;;;1.00;0.70;;;;;;;8.41;75.54;97614.56;5072976;28;20207;-76
2023/12/24 08:00:54;;;;;;;0.60;0.60;;;;;;;8.40;76.07;97621.84;5070518;28;20249;-76
2023/12/24 08:03:22;;;;;;;0.70;0.70;;;;;;;8.47;76.09;97635.31;5071463;28;20559;-76
2023/12/24 08:05:57;;;;;;;0.80;0.60;;;;;;;8.49;75.21;97635.97;5052288;28;20212;-75
2023/12/24 08:08:24;;;;;;;1.45;0.65;;;;;;;8.65;74.96;97648.31;5070851;28;20221;-76
2023/12/24 08:10:51;;;;;;;0.70;0.70;;;;;;;8.68;75.15;97635.25;5069986;28;20322;-74
2023/12/24 08:13:17;;;;;;;0.85;0.60;;;;;;;8.75;75.07;97628.03;5085935;28;20199;-76
2023/12/24 08:15:44;;;;;;;0.50;0.50;;;;;;;8.66;74.92;97621.13;5050188;28;20425;-75
2023/12/24 08:18:11;;;;;;;0.60;0.60;;;;;;;8.79;75.07;97623.03;5071033;28;20202;-74
2023/12/24 08:20:37;;;;;;;0.70;0.52;;;;;;;8.86;74.69;97623.91;5068095;28;20396;-75
2023/12/24 08:23:07;;;;;;;0.60;0.60;;;;;;;8.85;75.31;97626.81;5087843;28;20657;-74
2023/12/24 08:25:33;;;;;;;0.55;0.50;;;;;;;8.80;74.81;97619.31;5071046;28;20256;-74
2023/12/24 08:28:01;;;;;;;0.60;0.50;;;;;;;8.86;74.84;97607.72;5068396;28;20211;-73
2023/12/24 08:30:28;;;;;;;0.50;0.40;;;;;;;8.93;74.23;97623.94;5068092;28;20216;-75
2023/12/24 08:32:54;;;;;;;0.40;0.40;;;;;;;8.94;74.60;97609.41;5086390;28;20254;-73
2023/12/24 08:35:22;;;;;;;0.50;0.50;;;;;;;8.91;74.40;97585.53;5088896;28;20689;-72
2023/12/24 08:37:48;;;;;;;0.60;0.60;;;;;;;8.96;74.13;97604.63;5089984;28;20679;-71
2023/12/24 08:40:16;;;;;;;0.60;0.50;;;;;;;8.94;74.68;97591.34;5081165;28;20223;-74
2023/12/24 08:42:43;;;;;;;0.70;0.50;;;;;;;8.97;74.68;97601.75;5083240;28;20671;-74
2023/12/24 08:45:10;;;;;;;0.50;0.50;;;;;;;8.95;74.58;97579.53;5080151;28;20296;-77
2023/12/24 08:47:36;;;;;;;0.60;0.50;;;;;;;8.90;74.76;97546.06;5072622;28;21760;-71
2023/12/24 08:50:04;;;;;;;0.80;0.50;;;;;;;9.00;75.02;97570.81;5089971;28;20286;-76
2023/12/24 08:52:34;;;;;;;0.60;0.52;;;;;;;8.99;74.37;97566.44;5070659;28;20530;-77
2023/12/24 08:55:00;;;;;;;0.60;0.50;;;;;;;9.11;74.38;97578.31;5068931;28;20672;-77
2023/12/24 08:57:28;;;;;;;0.50;0.50;;;;;;;9.15;74.25;97573.31;5085487;28;20295;-76
2023/12/24 08:59:55;;;;;;;0.50;0.50;;;;;;;9.19;74.75;97585.38;5102849;27;20224;-76
2023/12/24 09:02:21;;;;;;;0.50;0.50;;;;;;;9.12;74.85;97590.75;5072066;28;20192;-77
2023/12/24 09:04:48;;;;;;;0.60;0.50;;;;;;;8.85;75.98;97562.88;5066548;28;20195;-77
2023/12/24 09:07:14;;;;;;;0.60;0.55;;;;;;;9.06;76.82;97608.63;5069308;28;20669;-77
2023/12/24 09:09:41;;;;;;;0.60;0.50;;;;;;;8.93;77.29;97624.75;5070166;28;20302;-76
2023/12/24 09:12:08;;;;;;;0.60;0.50;;;;;;;8.80;78.62;97618.47;5066743;28;20282;-77
2023/12/24 09:14:36;;;;;;;0.98;0.63;;;;;;;8.71;79.90;97626.75;5068674;28;20286;-77
2023/12/24 09:17:03;;;;;;;0.70;0.60;;;;;;;8.62;81.00;97614.47;5067509;28;20735;-77
2023/12/24 09:19:31;;;;;;;0.70;0.60;;;;;;;8.65;81.34;97611.38;5053637;28;20192;-78
2023/12/24 09:21:57;;;;;;;0.73;0.73;;;;;;;8.63;82.02;97624.22;5107630;28;20220;-77
2023/12/24 09:24:24;;;;;;;0.60;0.50;;;;;;;8.53;82.24;97629.16;5049220;28;20721;-77
2023/12/24 09:26:50;;;;;;;0.90;0.60;;;;;;;8.51;83.07;97627.69;5104762;28;20271;-77
2023/12/24 09:29:21;;;;;;;0.60;0.43;;;;;;;8.44;83.13;97603.41;5086954;28;20195;-76
2023/12/24 09:31:53;;;;;;;0.77;0.50;;;;;;;8.33;83.57;97593.16;5089119;28;20196;-77
2023/12/24 09:34:20;;;;;;;0.80;0.50;;;;;;;8.44;84.37;97606.09;5106031;28;20397;-77
2023/12/24 09:36:46;;;;;;;0.65;0.57;;;;;;;8.46;84.84;97622.88;5069102;28;20211;-77
2023/12/24 09:39:14;;;;;;;0.65;0.55;;;;;;;8.40;84.92;97608.34;5064338;28;20211;-75
2023/12/24 09:41:40;;;;;;;0.90;0.50;;;;;;;8.44;85.97;97614.19;5070138;28;20315;-78
2023/12/24 09:44:09;;;;;;;2.35;0.60;;;;;;;8.44;85.47;97619.56;5088081;28;20204;-75
2023/12/24 09:46:37;;;;;;;0.60;0.50;;;;;;;8.46;85.40;97622.03;5083985;28;20203;-70
2023/12/24 09:49:05;;;;;;;1.15;0.70;;;;;;;8.37;85.73;97597.13;5066537;28;20275;-71
2023/12/24 09:51:35;;;;;;;0.85;0.60;;;;;;;8.37;86.07;97607.91;5074645;28;20203;-78
2023/12/24 09:54:02;;;;;;;0.60;0.50;;;;;;;8.45;86.75;97610.41;5084734;28;20206;-80
2023/12/24 09:56:29;;;;;;;3.38;0.73;;;;;;;8.46;86.43;97616.66;5085688;28;20718;-79
2023/12/24 09:58:56;;;;;;;0.70;0.60;;;;;;;8.46;86.89;97628.25;5083246;28;20204;-80
2023/12/24 10:01:22;;;;;;;0.90;0.85;;;;;;;8.31;86.58;97601.41;5089413;28;20820;-78
2023/12/24 10:03:51;;;;;;;0.60;0.50;;;;;;;8.51;85.63;97615.03;5069445;28;20203;-78
2023/12/24 10:06:21;;;;;;;0.80;0.60;;;;;;;8.52;85.42;97621.25;5076916;28;20231;-78
2023/12/24 10:08:54;;;;;;;2.70;0.85;;;;;;;8.49;85.60;97633.25;5081342;28;20195;-79
2023/12/24 10:11:22;;;;;;;1.15;0.77;;;;;;;8.55;85.10;97620.84;5074625;28;20228;-78
2023/12/24 10:13:58;;;;;;;0.90;0.80;;;;;;;8.61;84.55;97610.09;5057475;28;20200;-77
2023/12/24 10:16:25;;;;;;;1.08;0.68;;;;;;;8.59;84.19;97605.94;5075539;28;20660;-77
2023/12/24 10:18:53;;;;;;;1.40;0.60;;;;;;;8.62;83.71;97605.53;5075244;28;20286;-77
2023/12/24 10:21:23;;;;;;;1.50;0.80;;;;;;;8.67;83.53;97600.38;5084078;28;20247;-77
2023/12/24 10:23:49;;;;;;;1.00;0.80;;;;;;;8.71;82.91;97594.38;5081961;28;20259;-77
2023/12/24 10:26:16;;;;;;;1.48;0.90;;;;;;;8.67;82.97;97603.91;5072556;28;20212;-77
2023/12/24 10:28:48;;;;;;;0.75;0.70;;;;;;;8.71;82.86;97609.75;5091834;28;20188;-77
2023/12/24 10:31:15;;;;;;;0.90;0.70;;;;;;;8.74;82.58;97604.78;5074534;28;20199;-79
2023/12/24 10:33:43;;;;;;;1.25;1.10;;;;;;;8.79;83.16;97601.44;5071267;28;20246;-77
2023/12/24 10:36:10;;;;;;;0.60;0.60;;;;;;;8.69;82.42;97588.38;5056155;28;20192;-76
2023/12/24 10:38:38;;;;;;;0.60;0.60;;;;;;;8.88;82.12;97602.13;5071709;28;20204;-71
2023/12/24 10:41:06;;;;;;;0.80;0.80;;;;;;;8.93;81.71;97597.78;5095233;28;20224;-70
2023/12/24 10:43:35;;;;;;;1.27;0.60;;;;;;;9.00;81.28;97603.22;5069126;28;20299;-77
2023/12/24 10:46:02;;;;;;;0.93;0.60;;;;;;;9.06;80.83;97608.63;5103644;28;20217;-79
2023/12/24 10:48:29;;;;;;;0.60;0.60;;;;;;;9.11;80.70;97605.28;5073399;28;20200;-76
2023/12/24 10:50:56;;;;;;;0.60;0.60;;;;;;;9.02;81.30;97601.13;5072834;28;20279;-76
2023/12/24 10:53:23;;;;;;;0.90;0.63;;;;;;;9.03;81.05;97605.50;5075845;28;20290;-76
2023/12/24 10:55:57;;;;;;;0.60;0.60;;;;;;;8.99;82.35;97588.88;5076314;28;20249;-76
2023/12/24 10:58:31;;;;;;;0.65;0.60;;;;;;;9.01;82.32;97596.78;5076055;28;20201;-77
2023/12/24 11:01:05;;;;;;;0.60;0.52;;;;;;;8.96;81.98;97605.47;5076964;28;20219;-78
2023/12/24 11:03:43;;;;;;;0.95;0.60;;;;;;;9.00;81.64;97581.63;5099916;28;20246;-78
2023/12/24 11:06:09;;;;;;;0.70;0.50;;;;;;;8.92;82.54;97600.69;5079646;28;20648;-77
2023/12/24 11:08:36;;;;;;;1.55;0.60;;;;;;;8.95;82.55;97581.38;5115110;28;20600;-73
2023/12/24 11:11:10;;;;;;;0.60;0.50;;;;;;;8.96;81.87;97574.97;5070701;28;20207;-78
2023/12/24 11:13:47;;;;;;;1.58;0.70;;;;;;;9.01;81.48;97580.59;5079753;28;20234;-76
2023/12/24 11:16:36;;;;;;;0.60;0.60;;;;;;;9.16;80.18;97570.41;5078983;28;20279;-79
2023/12/24 11:19:03;;;;;;;0.60;0.55;;;;;;;9.24;79.05;97575.63;5059226;28;20792;-77
2023/12/24 11:21:31;;;;;;;0.50;0.50;;;;;;;9.28;79.02;97555.28;5071786;28;20314;-77
2023/12/24 11:24:21;;;;;;;0.60;0.55;;;;;;;9.34;78.48;97557.19;5075740;28;20222;-76
2023/12/24 11:26:53;;;;;;;0.65;0.65;;;;;;;9.42;78.24;97554.25;5109695;28;20239;-76
2023/12/24 11:29:46;;;;;;;0.50;0.50;;;;;;;9.43;78.10;97572.13;5110813;28;20211;-76
2023/12/24 11:32:35;;;;;;;0.60;0.50;;;;;;;9.48;77.79;97566.09;5076676;28;20196;-77
2023/12/24 11:35:02;;;;;;;1.20;0.50;;;;;;;9.50;77.88;97560.50;5094043;28;20204;-76
2023/12/24 11:37:29;;;;;;;0.50;0.50;;;;;;;9.52;77.57;97561.13;5077465;28;20218;-77
2023/12/24 11:40:00;;;;;;;0.60;0.57;;;;;;;9.61;77.50;97589.59;5090604;28;20200;-78
2023/12/24 11:42:42;;;;;;;0.90;0.68;;;;;;;9.71;76.79;97563.84;5064758;28;20228;-77